Aeroporto :
LOGIN :

Iscrizione | Disclaimer

   EN    FR    IT 

 










Sommario :    VFR   VFR Marginale   IFR   IFR Intensivo   IFR Molto Intensivo
Visibilità : 
Base nubi : 
>= 8 km
>= 3000ft
5 / 8 km
1000 / 3000 ft
1500m / 5 km
500 / 1000 ft
800 / 1500m
200 / 500 ft
< 800m
< 200 ft
Simboli :   Temporali  Nebbia  Neve Forte  Precipitazioni Forti  Vento > 20 kt
SIGMETs :   Varie  Temporali  Ghiacco  Turbolenza  Onda orograficha  Ceneri Vulcaniche






- Altitudine del aeroporto : 177 ft
- Codice IATA : AYT


LTAI - Antalya

ULTIMO METAR :
  • 200050Z 32009KT CAVOK 01/M11 Q1027 NOSIG RMK RWY18C 35013KT RWY36R 35008KT RWY18L 35010KT

METARs OBSOLETI :
  • 200020Z 35015KT CAVOK 01/M11 Q1027 NOSIG RMK RWY18C 35012KT RWY36R 35013KT RWY18L 35012KT
  • 192350Z 33012KT CAVOK 02/M12 Q1027 NOSIG RMK RWY18C 34017KT RWY36R 35013KT RWY18L 35011KT
  • 192320Z 33017KT CAVOK 03/M12 Q1027 NOSIG RMK RWY18C 33019KT RWY36R 33014KT RWY18L 34018KT
  • 192250Z 33014KT CAVOK 02/M12 Q1027 NOSIG RMK RWY18C 33018KT RWY36R 32013KT RWY18L 34016KT
  • 192220Z 33012KT CAVOK 02/M11 Q1028 NOSIG RMK RWY18C 32016KT RWY36R 32014KT RWY18L 33014KT
  • 192150Z 34016KT CAVOK 02/M12 Q1027 NOSIG RMK RWY18C 32010KT RWY36R 33014KT RWY18L 33010KT

TAF TAF LTAI
Valido dal 20 a 00 ore il 21 a 00 ore UTC


192240Z 2000/2024 34015G25KT CAVOK
BECMG 2010/2014 34007KT



MetMap, La meteo Aeronautica in un colpo d'occhio ! - Copyright ORBIFLY Dicembre 2007 - Disclaimer

ORBIFLY MET'MAP TEAM :

Programmazione e sviluppo : Alexandra Zaïnal
Concezione : Baudouin d'Aumeries
Aiuto per la programmazione : Marc-Olivier Méhu
Supporto tecnico e logistico : Manuel Goepfert
Aiuto per la traduzione : Arnaldo La Scala

Contatto : metmap@orbifly.com




FONTI E CREDITI :

   NOAA